Time;durP1;ratioP1;P1;durP2;ratioP2;P2;SDS_P1;SDS_P2;PMS_P1;PMS_P2;Temp;Humidity;BMP_temperature;BMP_pressure;BME280_temperature;BME280_humidity;BME280_pressure;Samples;Min_cycle;Max_cycle;Signal;HPM_P1;HPM_P2
2022/07/11 00:00:21;;;;;;;0.80;0.50;;;;;;;;;;5128896;27;20285;-59
2022/07/11 00:02:48;;;;;;;1.17;0.50;;;;;;;;;;5140772;27;20203;-60
2022/07/11 00:05:16;;;;;;;0.60;0.50;;;;;;;;;;5141804;27;20295;-60
2022/07/11 00:07:43;;;;;;;0.93;0.70;;;;;;;;;;5141944;27;20252;-60
2022/07/11 00:10:11;;;;;;;1.10;0.63;;;;;;;;;;5141979;27;20245;-60
2022/07/11 00:12:40;;;;;;;0.93;0.80;;;;;;;;;;5141950;27;20242;-59
2022/07/11 00:15:08;;;;;;;1.90;0.70;;;;;;;;;;5141557;27;20286;-60
2022/07/11 00:17:35;;;;;;;0.70;0.60;;;;;;;;;;5142176;27;20198;-60
2022/07/11 00:20:03;;;;;;;0.70;0.70;;;;;;;;;;5141720;27;20210;-60
2022/07/11 00:22:30;;;;;;;0.55;0.50;;;;;;;;;;5141768;27;20285;-59
2022/07/11 00:24:58;;;;;;;1.27;0.60;;;;;;;;;;5140546;27;20255;-60
2022/07/11 00:27:25;;;;;;;0.60;0.60;;;;;;;;;;5141315;27;20244;-60
2022/07/11 00:29:54;;;;;;;0.85;0.60;;;;;;;;;;5141198;27;20240;-59
2022/07/11 00:32:22;;;;;;;0.57;0.52;;;;;;;;;;5141304;27;20566;-59
2022/07/11 00:34:49;;;;;;;1.58;0.70;;;;;;;;;;5141246;27;20272;-60
2022/07/11 00:37:17;;;;;;;0.73;0.68;;;;;;;;;;5141450;27;20297;-59
2022/07/11 00:39:44;;;;;;;0.73;0.65;;;;;;;;;;5141586;27;20242;-59
2022/07/11 00:42:12;;;;;;;1.23;0.52;;;;;;;;;;5140930;27;20273;-60
2022/07/11 00:44:41;;;;;;;1.85;0.60;;;;;;;;;;5141180;27;20198;-59
2022/07/11 00:47:10;;;;;;;0.63;0.50;;;;;;;;;;5141476;27;20233;-59
2022/07/11 00:49:37;;;;;;;0.73;0.60;;;;;;;;;;5138448;27;20210;-59
2022/07/11 00:52:05;;;;;;;1.17;0.60;;;;;;;;;;5120669;28;20235;-60
2022/07/11 00:54:33;;;;;;;0.70;0.70;;;;;;;;;;5120343;28;20234;-59
2022/07/11 00:57:00;;;;;;;2.15;0.70;;;;;;;;;;5120199;28;20272;-59
2022/07/11 00:59:30;;;;;;;0.68;0.68;;;;;;;;;;5120578;28;20210;-59
2022/07/11 01:01:58;;;;;;;1.17;0.60;;;;;;;;;;5120571;28;20603;-60
2022/07/11 01:04:28;;;;;;;0.60;0.60;;;;;;;;;;5120448;28;20233;-60
2022/07/11 01:06:55;;;;;;;1.58;0.60;;;;;;;;;;5120254;28;20207;-59
2022/07/11 01:09:23;;;;;;;0.60;0.60;;;;;;;;;;5120350;28;20287;-60
2022/07/11 01:11:50;;;;;;;0.82;0.70;;;;;;;;;;5120242;28;20558;-59
2022/07/11 01:14:18;;;;;;;0.73;0.60;;;;;;;;;;5119712;28;20248;-60
2022/07/11 01:16:47;;;;;;;0.60;0.60;;;;;;;;;;5120542;27;20228;-60
2022/07/11 01:19:14;;;;;;;0.75;0.70;;;;;;;;;;5140788;27;20296;-60
2022/07/11 01:21:45;;;;;;;0.68;0.52;;;;;;;;;;5140654;27;20292;-59
2022/07/11 01:24:14;;;;;;;1.95;0.70;;;;;;;;;;5140190;27;20206;-59
2022/07/11 01:26:42;;;;;;;0.68;0.68;;;;;;;;;;5140093;27;20248;-59
2022/07/11 01:29:10;;;;;;;1.05;0.45;;;;;;;;;;5140379;27;20267;-59
2022/07/11 01:31:40;;;;;;;1.30;0.60;;;;;;;;;;5140423;27;20210;-60
2022/07/11 01:34:07;;;;;;;0.52;0.50;;;;;;;;;;5140284;27;20265;-60
2022/07/11 01:36:35;;;;;;;0.65;0.60;;;;;;;;;;5138093;27;20602;-60
2022/07/11 01:39:02;;;;;;;0.80;0.60;;;;;;;;;;5140296;27;20202;-60
2022/07/11 01:41:31;;;;;;;0.75;0.50;;;;;;;;;;5138951;27;20321;-59
2022/07/11 01:43:59;;;;;;;0.60;0.60;;;;;;;;;;5138926;27;20583;-59
2022/07/11 01:46:26;;;;;;;1.13;0.70;;;;;;;;;;5140103;27;20226;-59
2022/07/11 01:48:54;;;;;;;0.40;0.40;;;;;;;;;;5139751;27;20214;-60
2022/07/11 01:51:21;;;;;;;0.50;0.50;;;;;;;;;;5139774;27;20263;-59
2022/07/11 01:53:49;;;;;;;0.70;0.68;;;;;;;;;;5140039;27;20325;-59
2022/07/11 01:56:16;;;;;;;0.88;0.70;;;;;;;;;;5140211;27;20456;-60
2022/07/11 01:58:45;;;;;;;1.15;0.68;;;;;;;;;;5139860;27;20254;-59
2022/07/11 02:01:13;;;;;;;0.95;0.50;;;;;;;;;;5139674;27;20246;-59
2022/07/11 02:03:40;;;;;;;0.75;0.75;;;;;;;;;;5123712;27;20304;-60
2022/07/11 02:06:08;;;;;;;0.50;0.50;;;;;;;;;;5119323;28;20210;-60
2022/07/11 02:08:36;;;;;;;0.65;0.60;;;;;;;;;;5118877;28;20227;-59
2022/07/11 02:11:04;;;;;;;0.77;0.60;;;;;;;;;;5118642;28;20202;-59
2022/07/11 02:13:31;;;;;;;1.48;0.60;;;;;;;;;;5118809;28;20285;-60
2022/07/11 02:16:02;;;;;;;0.70;0.50;;;;;;;;;;5119155;28;20258;-60
2022/07/11 02:18:30;;;;;;;1.00;0.60;;;;;;;;;;5118457;28;20614;-59
2022/07/11 02:20:57;;;;;;;1.45;0.50;;;;;;;;;;5118496;28;20217;-60
2022/07/11 02:23:25;;;;;;;0.50;0.50;;;;;;;;;;5118486;28;21158;-59
2022/07/11 02:25:53;;;;;;;0.50;0.50;;;;;;;;;;5117533;28;20199;-59
2022/07/11 02:28:20;;;;;;;0.47;0.47;;;;;;;;;;5112068;28;20203;-60
2022/07/11 02:30:48;;;;;;;0.60;0.60;;;;;;;;;;5130634;27;20206;-60
2022/07/11 02:33:17;;;;;;;0.88;0.60;;;;;;;;;;5139351;28;20210;-64
2022/07/11 02:35:45;;;;;;;0.60;0.60;;;;;;;;;;5139130;28;20238;-59
2022/07/11 02:38:14;;;;;;;0.50;0.50;;;;;;;;;;5139513;28;20202;-60
2022/07/11 02:40:44;;;;;;;0.55;0.47;;;;;;;;;;5139266;28;20603;-60
2022/07/11 02:43:12;;;;;;;0.73;0.60;;;;;;;;;;5139404;28;20469;-60
2022/07/11 02:45:40;;;;;;;0.40;0.40;;;;;;;;;;5139263;28;20380;-59
2022/07/11 02:48:09;;;;;;;0.63;0.50;;;;;;;;;;5139219;28;20275;-59
2022/07/11 02:50:38;;;;;;;0.57;0.57;;;;;;;;;;5138683;28;20198;-59
2022/07/11 02:53:05;;;;;;;0.50;0.50;;;;;;;;;;5138717;28;20210;-59
2022/07/11 02:55:33;;;;;;;0.65;0.60;;;;;;;;;;5135899;28;20214;-59
2022/07/11 02:58:00;;;;;;;0.50;0.50;;;;;;;;;;5117731;28;20234;-59
2022/07/11 03:00:28;;;;;;;1.25;0.60;;;;;;;;;;5118146;28;20617;-59
2022/07/11 03:02:55;;;;;;;0.50;0.40;;;;;;;;;;5118184;28;20256;-60
2022/07/11 03:05:23;;;;;;;1.45;0.50;;;;;;;;;;5118472;28;20519;-59
2022/07/11 03:07:52;;;;;;;0.50;0.50;;;;;;;;;;5118560;28;20481;-60
2022/07/11 03:10:19;;;;;;;0.50;0.50;;;;;;;;;;5118423;28;20506;-59
2022/07/11 03:12:47;;;;;;;0.73;0.60;;;;;;;;;;5118485;28;20565;-60
2022/07/11 03:15:15;;;;;;;0.47;0.40;;;;;;;;;;5118105;28;20231;-59
2022/07/11 03:17:42;;;;;;;0.57;0.57;;;;;;;;;;5118278;28;20203;-60
2022/07/11 03:20:11;;;;;;;0.63;0.50;;;;;;;;;;5117934;28;20268;-60
2022/07/11 03:22:38;;;;;;;0.40;0.40;;;;;;;;;;5118637;28;20637;-60
2022/07/11 03:25:08;;;;;;;0.50;0.50;;;;;;;;;;5138756;28;20230;-60
2022/07/11 03:27:35;;;;;;;0.80;0.70;;;;;;;;;;5138294;28;20271;-60
2022/07/11 03:30:04;;;;;;;0.50;0.50;;;;;;;;;;5138978;28;20297;-60
2022/07/11 03:32:31;;;;;;;0.75;0.60;;;;;;;;;;5123419;28;20201;-60
2022/07/11 03:37:44;;;;;;;0.70;0.60;;;;;;;;;;5117746;28;20206;-59
2022/07/11 03:40:13;;;;;;;0.40;0.40;;;;;;;;;;5121724;28;20232;-60
2022/07/11 03:42:40;;;;;;;0.57;0.55;;;;;;;;;;5120822;28;20719;-59
2022/07/11 03:45:08;;;;;;;0.80;0.60;;;;;;;;;;5121827;28;20260;-59
2022/07/11 03:47:39;;;;;;;0.50;0.50;;;;;;;;;;5121276;28;20202;-59
2022/07/11 03:50:07;;;;;;;0.43;0.43;;;;;;;;;;5139706;27;20202;-59
2022/07/11 03:52:34;;;;;;;0.50;0.50;;;;;;;;;;5141216;27;20210;-59
2022/07/11 03:55:04;;;;;;;0.70;0.50;;;;;;;;;;5141382;27;20269;-59
2022/07/11 03:57:34;;;;;;;0.77;0.50;;;;;;;;;;5141490;27;20269;-60
2022/07/11 04:00:04;;;;;;;0.50;0.50;;;;;;;;;;5141065;27;20213;-59
2022/07/11 04:02:31;;;;;;;1.20;0.60;;;;;;;;;;5136697;27;20199;-60
2022/07/11 04:04:59;;;;;;;0.65;0.63;;;;;;;;;;5120522;28;20195;-60
2022/07/11 04:07:28;;;;;;;0.60;0.60;;;;;;;;;;5120391;28;20268;-60
2022/07/11 04:09:55;;;;;;;0.82;0.52;;;;;;;;;;5120189;28;20203;-59
2022/07/11 04:12:23;;;;;;;0.55;0.55;;;;;;;;;;5120565;28;20210;-59
2022/07/11 04:14:52;;;;;;;0.85;0.57;;;;;;;;;;5128894;27;20218;-60
2022/07/11 04:17:19;;;;;;;0.70;0.57;;;;;;;;;;5140750;27;20241;-60
2022/07/11 04:19:47;;;;;;;0.50;0.50;;;;;;;;;;5140805;27;20293;-60
2022/07/11 04:22:15;;;;;;;0.63;0.63;;;;;;;;;;5140750;27;20230;-59
2022/07/11 04:24:42;;;;;;;0.50;0.50;;;;;;;;;;5140611;27;20199;-60
2022/07/11 04:27:10;;;;;;;0.47;0.40;;;;;;;;;;5140795;27;20251;-59
2022/07/11 04:29:37;;;;;;;0.40;0.40;;;;;;;;;;5140501;27;20659;-60
2022/07/11 04:32:07;;;;;;;0.57;0.57;;;;;;;;;;5140979;27;20241;-60
2022/07/11 04:34:34;;;;;;;0.88;0.60;;;;;;;;;;5140540;27;20218;-59
2022/07/11 04:37:04;;;;;;;0.95;0.50;;;;;;;;;;5140149;27;20263;-60
2022/07/11 04:39:33;;;;;;;0.65;0.55;;;;;;;;;;5139947;27;20198;-61
2022/07/11 04:42:01;;;;;;;0.90;0.47;;;;;;;;;;5137081;27;20222;-59
2022/07/11 04:44:28;;;;;;;0.50;0.50;;;;;;;;;;5119530;28;20195;-59
2022/07/11 04:46:56;;;;;;;0.57;0.50;;;;;;;;;;5118533;28;20245;-59
2022/07/11 04:49:25;;;;;;;0.80;0.47;;;;;;;;;;5119405;28;20195;-59
2022/07/11 04:51:52;;;;;;;0.70;0.47;;;;;;;;;;5118961;28;20199;-59
2022/07/11 04:54:20;;;;;;;0.50;0.50;;;;;;;;;;5118478;28;20230;-59
2022/07/11 04:56:47;;;;;;;0.60;0.60;;;;;;;;;;5118005;28;20252;-59
2022/07/11 04:59:15;;;;;;;0.60;0.60;;;;;;;;;;5117880;28;20214;-59
2022/07/11 05:01:42;;;;;;;0.50;0.40;;;;;;;;;;5117771;28;20611;-58
2022/07/11 05:04:10;;;;;;;0.50;0.50;;;;;;;;;;5117597;28;20684;-58
2022/07/11 05:06:39;;;;;;;0.82;0.50;;;;;;;;;;5118390;28;20293;-58
2022/07/11 05:09:07;;;;;;;0.70;0.55;;;;;;;;;;5117379;28;20304;-58
2022/07/11 05:11:35;;;;;;;0.60;0.60;;;;;;;;;;5136162;27;20769;-58
2022/07/11 05:14:03;;;;;;;0.80;0.73;;;;;;;;;;5137837;27;20233;-59
2022/07/11 05:16:30;;;;;;;0.50;0.50;;;;;;;;;;5138222;27;20287;-59
2022/07/11 05:18:58;;;;;;;0.73;0.73;;;;;;;;;;5137671;27;20206;-59
2022/07/11 05:21:25;;;;;;;0.70;0.50;;;;;;;;;;5138166;27;20238;-59
2022/07/11 05:23:54;;;;;;;0.55;0.50;;;;;;;;;;5138394;27;20284;-59
2022/07/11 05:26:22;;;;;;;0.50;0.50;;;;;;;;;;5137414;27;20241;-59
2022/07/11 05:28:50;;;;;;;0.73;0.50;;;;;;;;;;5136932;27;20539;-59
2022/07/11 05:31:18;;;;;;;0.60;0.60;;;;;;;;;;5137023;27;20231;-60
2022/07/11 05:33:45;;;;;;;0.70;0.60;;;;;;;;;;5137340;27;20234;-59
2022/07/11 05:36:13;;;;;;;0.60;0.50;;;;;;;;;;5137591;27;20324;-59
2022/07/11 05:38:40;;;;;;;0.60;0.60;;;;;;;;;;5119142;27;20214;-59
2022/07/11 05:41:09;;;;;;;0.57;0.57;;;;;;;;;;5117052;28;20230;-58
2022/07/11 05:43:37;;;;;;;0.50;0.50;;;;;;;;;;5117185;28;20211;-58
2022/07/11 05:46:06;;;;;;;0.75;0.50;;;;;;;;;;5117017;28;20252;-58
2022/07/11 05:48:33;;;;;;;0.70;0.70;;;;;;;;;;5117188;28;20745;-59
2022/07/11 05:51:01;;;;;;;0.55;0.50;;;;;;;;;;5116779;28;20199;-59
2022/07/11 05:53:28;;;;;;;0.50;0.50;;;;;;;;;;5116176;28;20207;-60
2022/07/11 05:55:56;;;;;;;0.50;0.50;;;;;;;;;;5115723;28;20286;-59
2022/07/11 05:58:25;;;;;;;0.80;0.55;;;;;;;;;;5116992;28;20249;-60
2022/07/11 06:00:52;;;;;;;0.60;0.60;;;;;;;;;;5125173;27;20541;-59
2022/07/11 06:03:20;;;;;;;0.57;0.57;;;;;;;;;;5136632;27;20564;-59
2022/07/11 06:05:48;;;;;;;0.95;0.70;;;;;;;;;;5134592;27;20226;-60
2022/07/11 06:11:16;;;;;;;0.65;0.60;;;;;;;;;;5072935;28;20188;-59
2022/07/11 06:13:45;;;;;;;0.70;0.70;;;;;;;;;;5072694;28;20235;-60
2022/07/11 06:16:13;;;;;;;0.70;0.70;;;;;;;;;;5100626;27;20766;-60
2022/07/11 06:18:41;;;;;;;0.70;0.68;;;;;;;;;;5136045;27;20210;-59
2022/07/11 06:21:09;;;;;;;0.50;0.50;;;;;;;;;;5136249;27;20266;-59
2022/07/11 06:23:36;;;;;;;0.70;0.70;;;;;;;;;;5136469;27;20579;-59
2022/07/11 06:26:04;;;;;;;1.13;0.80;;;;;;;;;;5136557;27;20281;-60
2022/07/11 06:28:31;;;;;;;0.63;0.57;;;;;;;;;;5136150;27;20237;-60
2022/07/11 06:31:01;;;;;;;0.98;0.70;;;;;;;;;;5136037;27;20267;-60
2022/07/11 06:33:29;;;;;;;0.70;0.60;;;;;;;;;;5135663;28;20262;-60
2022/07/11 06:35:56;;;;;;;0.70;0.70;;;;;;;;;;5151493;27;20213;-60
2022/07/11 06:38:24;;;;;;;1.00;0.80;;;;;;;;;;5156803;27;20261;-60
2022/07/11 06:40:52;;;;;;;0.80;0.70;;;;;;;;;;5156249;27;20328;-59
2022/07/11 06:43:20;;;;;;;1.90;0.57;;;;;;;;;;5156462;27;20785;-60
2022/07/11 06:45:47;;;;;;;1.30;0.65;;;;;;;;;;5156763;27;20232;-59
2022/07/11 06:48:17;;;;;;;0.63;0.63;;;;;;;;;;5133132;27;20207;-59
2022/07/11 06:50:44;;;;;;;0.77;0.70;;;;;;;;;;5130567;28;20259;-59
2022/07/11 06:53:12;;;;;;;0.75;0.73;;;;;;;;;;5134303;28;20364;-59
2022/07/11 06:55:39;;;;;;;0.73;0.70;;;;;;;;;;5134871;28;20220;-59
2022/07/11 06:58:07;;;;;;;1.45;0.75;;;;;;;;;;5134453;28;20550;-60
2022/07/11 07:00:35;;;;;;;0.70;0.63;;;;;;;;;;5134069;28;20497;-59
2022/07/11 07:03:03;;;;;;;1.27;0.65;;;;;;;;;;5135178;28;20263;-60
2022/07/11 07:05:32;;;;;;;0.82;0.70;;;;;;;;;;5137963;28;20209;-59
2022/07/11 07:07:59;;;;;;;1.15;0.73;;;;;;;;;;5119473;22;20235;-59
2022/07/11 07:10:27;;;;;;;0.63;0.55;;;;;;;;;;5097240;28;20302;-59
2022/07/11 07:12:54;;;;;;;2.15;0.80;;;;;;;;;;5095799;28;20711;-60
2022/07/11 07:15:22;;;;;;;1.90;0.90;;;;;;;;;;5100051;28;20611;-60
2022/07/11 07:17:50;;;;;;;1.92;0.70;;;;;;;;;;5100084;28;20269;-59
2022/07/11 07:20:17;;;;;;;1.15;0.73;;;;;;;;;;5100013;28;20204;-60
2022/07/11 07:22:46;;;;;;;1.38;0.90;;;;;;;;;;5099469;28;20231;-59
2022/07/11 07:25:13;;;;;;;0.65;0.63;;;;;;;;;;5099763;28;20204;-59
2022/07/11 07:27:41;;;;;;;0.93;0.70;;;;;;;;;;5098651;28;20296;-59
2022/07/11 07:30:10;;;;;;;1.67;0.90;;;;;;;;;;5098463;28;20204;-60
2022/07/11 07:32:37;;;;;;;1.02;0.80;;;;;;;;;;5098289;28;20195;-60
2022/07/11 07:35:06;;;;;;;0.80;0.80;;;;;;;;;;5092793;28;20196;-60
2022/07/11 07:37:34;;;;;;;0.68;0.68;;;;;;;;;;5077786;28;20203;-60
2022/07/11 07:40:03;;;;;;;0.63;0.63;;;;;;;;;;5086010;28;20599;-61
2022/07/11 07:42:30;;;;;;;1.67;0.70;;;;;;;;;;5097788;28;20592;-60
2022/07/11 07:44:59;;;;;;;0.55;0.55;;;;;;;;;;5098435;28;20228;-59
2022/07/11 07:47:27;;;;;;;1.25;0.90;;;;;;;;;;5098075;28;20235;-60
2022/07/11 07:49:55;;;;;;;1.10;0.60;;;;;;;;;;5098342;28;20704;-59
2022/07/11 07:52:22;;;;;;;0.90;0.80;;;;;;;;;;5098933;28;20261;-60
2022/07/11 07:54:50;;;;;;;1.98;0.90;;;;;;;;;;5097954;28;20272;-60
2022/07/11 07:57:19;;;;;;;1.83;0.90;;;;;;;;;;5098372;28;20223;-59
2022/07/11 07:59:46;;;;;;;1.08;0.90;;;;;;;;;;5098010;28;20235;-60
2022/07/11 08:02:13;;;;;;;2.60;1.10;;;;;;;;;;5094336;28;20196;-60
2022/07/11 08:04:40;;;;;;;1.98;1.30;;;;;;;;;;5077925;28;20210;-60
2022/07/11 08:07:08;;;;;;;2.97;1.30;;;;;;;;;;5077432;28;20330;-60
2022/07/11 08:09:36;;;;;;;1.85;1.10;;;;;;;;;;5076684;28;20238;-60
2022/07/11 08:12:03;;;;;;;1.60;1.05;;;;;;;;;;5077200;28;20231;-60
2022/07/11 08:14:32;;;;;;;0.95;0.90;;;;;;;;;;5076883;28;20635;-60
2022/07/11 08:17:00;;;;;;;1.23;0.98;;;;;;;;;;5076340;28;20263;-59
2022/07/11 08:19:30;;;;;;;1.45;0.90;;;;;;;;;;5077622;28;20204;-60
2022/07/11 08:21:57;;;;;;;1.00;0.90;;;;;;;;;;5077376;28;20444;-60
2022/07/11 08:24:25;;;;;;;1.40;0.98;;;;;;;;;;5077210;28;20204;-60
2022/07/11 08:26:52;;;;;;;1.27;1.08;;;;;;;;;;5077480;28;20224;-60
2022/07/11 08:29:20;;;;;;;2.38;1.10;;;;;;;;;;5077388;28;20277;-60
2022/07/11 08:31:49;;;;;;;1.75;1.17;;;;;;;;;;5094639;28;20196;-60
2022/07/11 08:34:16;;;;;;;1.10;1.00;;;;;;;;;;5096950;28;20231;-59
2022/07/11 08:36:44;;;;;;;1.20;1.10;;;;;;;;;;5097597;28;20274;-60
2022/07/11 08:39:11;;;;;;;1.20;1.00;;;;;;;;;;5089412;28;20200;-60
2022/07/11 08:41:43;;;;;;;2.03;1.15;;;;;;;;;;5075009;28;20235;-60
2022/07/11 08:44:11;;;;;;;1.38;1.00;;;;;;;;;;5076057;28;20237;-60
2022/07/11 08:46:39;;;;;;;1.55;1.00;;;;;;;;;;5076215;28;20261;-60
2022/07/11 08:49:08;;;;;;;1.30;1.20;;;;;;;;;;5076626;28;20663;-60
2022/07/11 08:51:38;;;;;;;1.40;1.20;;;;;;;;;;5077185;28;20212;-60
2022/07/11 08:54:06;;;;;;;2.03;1.30;;;;;;;;;;5076279;28;20204;-60
2022/07/11 08:56:33;;;;;;;1.80;1.23;;;;;;;;;;5075477;28;20224;-59
2022/07/11 08:59:01;;;;;;;2.13;1.10;;;;;;;;;;5076650;28;20219;-59
2022/07/11 09:01:30;;;;;;;1.27;1.15;;;;;;;;;;5076118;28;20200;-59
2022/07/11 09:03:58;;;;;;;2.17;1.20;;;;;;;;;;5075740;28;20265;-59
2022/07/11 09:06:27;;;;;;;1.70;1.30;;;;;;;;;;5076359;28;20224;-59
2022/07/11 09:08:58;;;;;;;1.15;1.02;;;;;;;;;;5075446;28;20802;-59
2022/07/11 09:11:25;;;;;;;1.63;1.25;;;;;;;;;;5076320;28;20304;-59
2022/07/11 09:13:53;;;;;;;1.58;0.90;;;;;;;;;;5076411;28;20289;-60
2022/07/11 09:16:20;;;;;;;1.30;1.20;;;;;;;;;;5075649;28;20625;-60
2022/07/11 09:18:48;;;;;;;2.30;1.25;;;;;;;;;;5076543;28;20552;-60
2022/07/11 09:26:49;;;;;;;1.10;1.00;;;;;;;;;;5093198;28;20210;-59
2022/07/11 09:29:17;;;;;;;2.08;1.10;;;;;;;;;;5095693;28;20203;-59
2022/07/11 09:31:45;;;;;;;1.50;1.20;;;;;;;;;;5096241;28;20294;-60
2022/07/11 09:34:15;;;;;;;1.20;1.10;;;;;;;;;;5096054;28;20298;-60
2022/07/11 09:36:44;;;;;;;1.10;1.00;;;;;;;;;;5095104;28;20224;-60
2022/07/11 09:39:15;;;;;;;1.77;1.30;;;;;;;;;;5095296;28;20204;-60
2022/07/11 09:41:43;;;;;;;1.10;0.90;;;;;;;;;;5096224;28;20675;-60
2022/07/11 09:44:14;;;;;;;1.70;1.10;;;;;;;;;;5095641;28;20268;-60
2022/07/11 09:46:42;;;;;;;1.45;1.00;;;;;;;;;;5096322;28;20238;-60
2022/07/11 09:49:10;;;;;;;1.25;1.15;;;;;;;;;;5096264;28;20204;-60
2022/07/11 09:51:38;;;;;;;1.10;1.00;;;;;;;;;;5094700;28;20311;-60
2022/07/11 09:54:06;;;;;;;1.17;1.08;;;;;;;;;;5093894;28;20628;-60
2022/07/11 09:56:40;;;;;;;2.13;1.35;;;;;;;;;;5094689;28;20249;-60
2022/07/11 09:59:09;;;;;;;1.52;1.00;;;;;;;;;;5095789;28;20290;-60
2022/07/11 10:01:37;;;;;;;1.20;1.00;;;;;;;;;;5095327;28;20489;-60
2022/07/11 10:04:06;;;;;;;1.13;1.00;;;;;;;;;;5094789;28;20253;-60
2022/07/11 10:06:34;;;;;;;1.20;1.10;;;;;;;;;;5095015;28;20641;-60
2022/07/11 10:09:01;;;;;;;1.58;1.10;;;;;;;;;;5074670;28;20196;-60
2022/07/11 10:11:29;;;;;;;0.88;0.82;;;;;;;;;;5075094;28;20200;-60
2022/07/11 10:14:00;;;;;;;1.30;1.15;;;;;;;;;;5074357;28;20481;-60
2022/07/11 10:16:35;;;;;;;1.77;1.10;;;;;;;;;;5075081;28;20492;-65
2022/07/11 10:19:08;;;;;;;4.05;1.30;;;;;;;;;;5074972;28;20203;-60
2022/07/11 10:21:40;;;;;;;1.15;1.00;;;;;;;;;;5087118;28;20199;-60
2022/07/11 10:24:12;;;;;;;3.65;1.00;;;;;;;;;;5093717;28;20239;-60
2022/07/11 10:26:42;;;;;;;1.63;1.08;;;;;;;;;;5094411;28;20231;-60
2022/07/11 10:29:16;;;;;;;2.47;1.10;;;;;;;;;;5093621;28;20246;-60
2022/07/11 10:31:44;;;;;;;1.02;0.82;;;;;;;;;;5094874;28;20265;-60
2022/07/11 10:34:16;;;;;;;1.50;1.20;;;;;;;;;;5093933;28;20229;-60
2022/07/11 10:36:44;;;;;;;2.85;1.10;;;;;;;;;;5093265;28;20235;-60
2022/07/11 10:39:17;;;;;;;1.02;0.93;;;;;;;;;;5094765;28;20298;-60
2022/07/11 10:41:45;;;;;;;1.10;1.00;;;;;;;;;;5094398;28;20242;-60
2022/07/11 10:44:14;;;;;;;1.00;0.90;;;;;;;;;;5095025;28;20204;-60
2022/07/11 10:46:41;;;;;;;1.05;0.90;;;;;;;;;;5094443;28;20196;-60
2022/07/11 10:49:12;;;;;;;1.30;1.02;;;;;;;;;;5082574;28;20281;-59
2022/07/11 10:51:53;;;;;;;1.08;0.90;;;;;;;;;;5077595;28;20203;-59
2022/07/11 10:54:26;;;;;;;1.40;0.90;;;;;;;;;;5078392;28;20208;-60
2022/07/11 10:57:07;;;;;;;2.25;1.20;;;;;;;;;;5077600;28;20234;-61
2022/07/11 10:59:56;;;;;;;2.10;1.30;;;;;;;;;;5078551;28;20644;-60
2022/07/11 11:02:23;;;;;;;1.75;0.95;;;;;;;;;;5078391;28;20212;-59
2022/07/11 11:04:57;;;;;;;1.00;0.90;;;;;;;;;;5078555;28;20298;-59
2022/07/11 11:07:46;;;;;;;1.17;0.98;;;;;;;;;;5069992;28;20263;-59
2022/07/11 11:10:38;;;;;;;2.03;1.10;;;;;;;;;;5057420;28;20209;-59
2022/07/11 11:13:20;;;;;;;1.10;0.90;;;;;;;;;;5057588;28;20262;-59
2022/07/11 11:15:50;;;;;;;1.10;0.93;;;;;;;;;;5063994;28;20196;-59
2022/07/11 11:18:37;;;;;;;0.88;0.88;;;;;;;;;;5078059;28;20508;-59
2022/07/11 11:21:23;;;;;;;1.10;0.80;;;;;;;;;;5077074;28;20295;-59
2022/07/11 11:24:08;;;;;;;1.08;0.95;;;;;;;;;;5078117;28;20204;-59
2022/07/11 11:26:46;;;;;;;0.88;0.80;;;;;;;;;;5077779;28;20304;-60
2022/07/11 11:29:13;;;;;;;2.00;0.93;;;;;;;;;;5076654;28;20204;-60
2022/07/11 11:31:50;;;;;;;1.13;0.98;;;;;;;;;;5076983;28;20204;-60
2022/07/11 11:34:17;;;;;;;0.80;0.70;;;;;;;;;;5076875;28;20228;-60
2022/07/11 11:36:45;;;;;;;0.85;0.80;;;;;;;;;;5076866;28;20220;-60
2022/07/11 11:39:22;;;;;;;1.10;0.95;;;;;;;;;;5077605;28;20269;-60
2022/07/11 11:41:50;;;;;;;0.80;0.80;;;;;;;;;;5077060;28;20208;-60
2022/07/11 11:44:17;;;;;;;1.00;0.90;;;;;;;;;;5062411;28;20228;-60
2022/07/11 11:46:46;;;;;;;0.77;0.77;;;;;;;;;;5057554;28;20263;-60
2022/07/11 11:49:14;;;;;;;0.70;0.70;;;;;;;;;;5056055;28;20239;-60
2022/07/11 11:51:43;;;;;;;0.95;0.80;;;;;;;;;;5057093;28;20205;-60
2022/07/11 11:54:11;;;;;;;0.90;0.90;;;;;;;;;;5057139;28;20201;-60
2022/07/11 11:56:40;;;;;;;0.70;0.70;;;;;;;;;;5057773;28;20471;-60
2022/07/11 11:59:09;;;;;;;0.73;0.73;;;;;;;;;;5057359;28;20201;-60
2022/07/11 12:01:38;;;;;;;0.80;0.80;;;;;;;;;;5057279;28;20202;-60
2022/07/11 12:04:08;;;;;;;0.82;0.82;;;;;;;;;;5056370;28;20625;-60
2022/07/11 12:06:36;;;;;;;0.85;0.73;;;;;;;;;;5057379;28;20217;-60
2022/07/11 12:09:06;;;;;;;1.10;0.82;;;;;;;;;;5077011;28;20291;-59
2022/07/11 12:11:35;;;;;;;0.68;0.63;;;;;;;;;;5088903;28;20196;-59
2022/07/11 12:14:05;;;;;;;0.90;0.90;;;;;;;;;;5098439;28;20203;-60
2022/07/11 12:16:42;;;;;;;0.77;0.70;;;;;;;;;;5097262;28;20211;-60
2022/07/11 12:19:13;;;;;;;1.10;1.00;;;;;;;;;;5097477;28;20203;-60
2022/07/11 12:21:41;;;;;;;0.68;0.68;;;;;;;;;;5096729;28;20210;-60
2022/07/11 12:24:10;;;;;;;0.65;0.65;;;;;;;;;;5096775;28;20204;-60
2022/07/11 12:26:40;;;;;;;0.60;0.60;;;;;;;;;;5096387;28;20203;-59
2022/07/11 12:29:10;;;;;;;0.75;0.75;;;;;;;;;;5097244;28;20203;-60
2022/07/11 12:31:42;;;;;;;0.80;0.80;;;;;;;;;;5096991;28;20303;-60
2022/07/11 12:34:09;;;;;;;0.80;0.80;;;;;;;;;;5096804;28;20207;-60
2022/07/11 12:36:38;;;;;;;0.80;0.60;;;;;;;;;;5096122;28;20268;-60
2022/07/11 12:39:06;;;;;;;0.70;0.70;;;;;;;;;;5086587;28;20228;-60
2022/07/11 12:41:33;;;;;;;0.70;0.70;;;;;;;;;;5075447;28;20258;-60
2022/07/11 12:46:48;;;;;;;0.77;0.70;;;;;;;;;;5087380;28;20198;-60
2022/07/11 12:49:16;;;;;;;0.90;0.80;;;;;;;;;;5096238;28;20196;-60
2022/07/11 12:51:45;;;;;;;0.93;0.80;;;;;;;;;;5096343;28;20203;-60
2022/07/11 12:54:13;;;;;;;0.80;0.80;;;;;;;;;;5095662;28;20203;-60
2022/07/11 12:56:42;;;;;;;0.63;0.63;;;;;;;;;;5095485;28;20261;-60
2022/07/11 12:59:21;;;;;;;0.77;0.77;;;;;;;;;;5095431;28;20321;-60
2022/07/11 13:01:58;;;;;;;0.75;0.75;;;;;;;;;;5095347;28;20502;-60
2022/07/11 13:04:32;;;;;;;0.80;0.70;;;;;;;;;;5096427;28;20546;-60
2022/07/11 13:10:05;;;;;;;1.00;0.77;;;;;;;;;;5094853;28;20277;-60
2022/07/11 13:12:32;;;;;;;1.15;0.75;;;;;;;;;;5094519;28;20290;-60
2022/07/11 13:15:10;;;;;;;0.70;0.70;;;;;;;;;;5096013;28;20239;-60
2022/07/11 13:17:39;;;;;;;0.73;0.73;;;;;;;;;;5096442;28;20286;-60
2022/07/11 13:20:07;;;;;;;0.90;0.63;;;;;;;;;;5095631;28;20680;-61
2022/07/11 13:22:36;;;;;;;0.90;0.90;;;;;;;;;;5095431;28;20299;-60
2022/07/11 13:25:04;;;;;;;0.80;0.80;;;;;;;;;;5095385;28;20204;-60
2022/07/11 13:27:32;;;;;;;0.70;0.70;;;;;;;;;;5094703;28;20199;-60
2022/07/11 13:29:59;;;;;;;0.60;0.60;;;;;;;;;;5095648;28;20231;-60
2022/07/11 13:32:27;;;;;;;0.77;0.77;;;;;;;;;;5093945;28;20340;-60
2022/07/11 13:34:54;;;;;;;0.90;0.90;;;;;;;;;;5074168;28;20279;-60
2022/07/11 13:37:22;;;;;;;0.70;0.70;;;;;;;;;;5074898;28;20252;-59
2022/07/11 13:39:51;;;;;;;0.85;0.77;;;;;;;;;;5073360;28;20658;-60
2022/07/11 13:42:18;;;;;;;0.70;0.70;;;;;;;;;;5074092;28;20258;-60
2022/07/11 13:44:46;;;;;;;0.77;0.77;;;;;;;;;;5075186;28;20244;-60
2022/07/11 13:47:13;;;;;;;0.80;0.80;;;;;;;;;;5074847;28;20204;-60
2022/07/11 13:49:41;;;;;;;0.80;0.80;;;;;;;;;;5074881;28;20204;-60
2022/07/11 13:52:11;;;;;;;0.80;0.80;;;;;;;;;;5073981;28;20197;-60
2022/07/11 13:54:40;;;;;;;0.90;0.90;;;;;;;;;;5077293;28;20644;-60
2022/07/11 13:57:08;;;;;;;0.82;0.82;;;;;;;;;;5089046;28;20203;-60
2022/07/11 13:59:36;;;;;;;0.90;0.90;;;;;;;;;;5093652;28;20584;-60
2022/07/11 14:02:04;;;;;;;0.88;0.88;;;;;;;;;;5089570;28;20199;-60
2022/07/11 14:04:32;;;;;;;1.05;0.85;;;;;;;;;;5093981;28;20204;-60
2022/07/11 14:06:59;;;;;;;0.80;0.80;;;;;;;;;;5094192;28;20704;-60
2022/07/11 14:09:28;;;;;;;0.88;0.88;;;;;;;;;;5094819;28;20200;-60
2022/07/11 14:11:55;;;;;;;0.80;0.80;;;;;;;;;;5095045;28;20204;-60
2022/07/11 14:14:24;;;;;;;0.95;0.95;;;;;;;;;;5094273;28;20292;-60
2022/07/11 14:16:52;;;;;;;1.00;0.90;;;;;;;;;;5094153;28;20817;-60
2022/07/11 14:19:19;;;;;;;1.00;0.90;;;;;;;;;;5094085;28;20277;-60
2022/07/11 14:21:47;;;;;;;2.30;1.05;;;;;;;;;;5093968;28;20254;-60
2022/07/11 14:24:15;;;;;;;1.00;1.00;;;;;;;;;;5094234;28;20214;-60
2022/07/11 14:26:43;;;;;;;1.27;1.20;;;;;;;;;;5094463;28;20211;-60
2022/07/11 14:29:10;;;;;;;1.17;1.00;;;;;;;;;;5093337;28;20195;-60
2022/07/11 14:31:39;;;;;;;1.10;1.05;;;;;;;;;;5094628;28;20290;-61
2022/07/11 14:34:07;;;;;;;1.00;1.00;;;;;;;;;;5093708;28;20208;-60
2022/07/11 14:36:34;;;;;;;0.95;0.95;;;;;;;;;;5093017;28;20199;-60
2022/07/11 14:39:02;;;;;;;1.05;0.90;;;;;;;;;;5093804;28;20318;-59
2022/07/11 14:41:29;;;;;;;1.02;1.02;;;;;;;;;;5093710;28;20203;-60
2022/07/11 14:43:59;;;;;;;1.00;1.00;;;;;;;;;;5093843;28;20221;-60
2022/07/11 14:46:26;;;;;;;0.90;0.90;;;;;;;;;;5094607;28;20231;-60
2022/07/11 14:48:55;;;;;;;0.90;0.90;;;;;;;;;;5093879;28;20204;-60
2022/07/11 14:51:22;;;;;;;1.15;1.05;;;;;;;;;;5093772;28;20265;-60
2022/07/11 14:53:50;;;;;;;1.02;0.80;;;;;;;;;;5093896;28;20231;-60
2022/07/11 14:56:17;;;;;;;1.52;1.00;;;;;;;;;;5090359;28;20278;-60
2022/07/11 14:58:45;;;;;;;1.10;1.00;;;;;;;;;;5086215;28;20211;-60
2022/07/11 15:01:12;;;;;;;1.20;1.10;;;;;;;;;;5095171;28;20294;-60
2022/07/11 15:03:43;;;;;;;1.83;0.93;;;;;;;;;;5094894;28;20207;-60
2022/07/11 15:06:13;;;;;;;1.30;1.10;;;;;;;;;;5094809;28;20204;-60
2022/07/11 15:14:12;;;;;;;0.98;0.98;;;;;;;;;;5093279;28;20279;-60